Austinburg, Ohio
Current Conditions -  °F | °C
As of 12:53 PM on Friday 31 Oct 2014 (Local Time) from KHZY Reporting Station
Overcast Overcast  
Wind Chill: 44°   Ceiling: 4900
Heat Index: 47°   Visibility: 10mi
Dew Point: 37°   Wind: 7mph
Humidity: 68%   Direction: 260°W
Pressure: 29.9"   Gusts: NA
Location:  41.77°N, 80.85°W
Report Text: KHZY 311653Z AUTO 26006KT 10SM FEW029 OVC049 08/03 A2990 RMK AO2 RAB21E38 SLP129 P0000 T00830028
Loading
Personal Weather Stations






























Interactive Weather Map
Tropical Storm Tracking
New forecast layout! Learn more

10-Day Weather Forecast

Advertisements
Track Severe Weather on mobile